Time;durP1;ratioP1;P1;durP2;ratioP2;P2;SDS_P1;SDS_P2;PMS_P1;PMS_P2;Temp;Humidity;BMP_temperature;BMP_pressure;BME280_temperature;BME280_humidity;BME280_pressure;Samples;Min_cycle;Max_cycle;Signal;HPM_P1;HPM_P2
2023/06/14 00:00:34;;;;;;;;;;;;;;;;;;5084985;27;19925;-77
2023/06/14 00:03:00;;;;;;;;;;;;;;;;;;5074819;27;20421;-77
2023/06/14 00:05:26;;;;;;;;;;;;;;;;;;5027569;27;19917;-77
2023/06/14 00:07:53;;;;;;;;;;;;;;;;;;5023060;28;20371;-77
2023/06/14 00:10:19;;;;;;;;;;;;;;;;;;5035207;28;19913;-78
2023/06/14 00:12:45;;;;;;;;;;;;;;;;;;5030277;28;19932;-78
2023/06/14 00:15:11;;;;;;;;;;;;;;;;;;5014608;28;19918;-78
2023/06/14 00:17:38;;;;;;;;;;;;;;;;;;5027587;28;19913;-78
2023/06/14 00:20:07;;;;;;;;;;;;;;;;;;5025715;28;20011;-78
2023/06/14 00:22:33;;;;;;;;;;;;;;;;;;5033043;28;19905;-75
2023/06/14 00:24:59;;;;;;;;;;;;;;;;;;5029105;28;19947;-76
2023/06/14 00:27:25;;;;;;;;;;;;;;;;;;5033389;28;19917;-77
2023/06/14 00:29:51;;;;;;;;;;;;;;;;;;5022545;28;20366;-77
2023/06/14 00:32:17;;;;;;;;;;;;;;;;;;5025739;28;19917;-77
2023/06/14 00:34:43;;;;;;;;;;;;;;;;;;5021356;28;19914;-77
2023/06/14 00:37:09;;;;;;;;;;;;;;;;;;5014896;28;19921;-77
2023/06/14 00:39:36;;;;;;;;;;;;;;;;;;5029755;28;19917;-77
2023/06/14 00:42:03;;;;;;;;;;;;;;;;;;5026419;28;20013;-78
2023/06/14 00:44:29;;;;;;;;;;;;;;;;;;5023099;28;19938;-78
2023/06/14 00:46:55;;;;;;;;;;;;;;;;;;5033503;28;19913;-78
2023/06/14 00:49:21;;;;;;;;;;;;;;;;;;5030030;28;20004;-78
2023/06/14 00:51:47;;;;;;;;;;;;;;;;;;5028438;28;19914;-78
2023/06/14 00:54:13;;;;;;;;;;;;;;;;;;5023091;28;19914;-78
2023/06/14 00:56:39;;;;;;;;;;;;;;;;;;5021519;28;19914;-78
2023/06/14 00:59:05;;;;;;;;;;;;;;;;;;5039185;28;19984;-78
2023/06/14 01:01:34;;;;;;;;;;;;;;;;;;5031656;28;19992;-78
2023/06/14 01:04:04;;;;;;;;;;;;;;;;;;5019092;28;19918;-78
2023/06/14 01:06:30;;;;;;;;;;;;;;;;;;5030239;28;19966;-77
2023/06/14 01:08:56;;;;;;;;;;;;;;;;;;5023248;28;19947;-77
2023/06/14 01:11:22;;;;;;;;;;;;;;;;;;5018407;28;19940;-77
2023/06/14 01:13:48;;;;;;;;;;;;;;;;;;5024119;28;19917;-77
2023/06/14 01:16:15;;;;;;;;;;;;;;;;;;5027056;28;19925;-78
2023/06/14 01:18:41;;;;;;;;;;;;;;;;;;5014923;28;20039;-77
2023/06/14 01:21:08;;;;;;;;;;;;;;;;;;5028447;28;19920;-77
2023/06/14 01:23:34;;;;;;;;;;;;;;;;;;5023287;28;20646;-77
2023/06/14 01:26:02;;;;;;;;;;;;;;;;;;5018909;28;19917;-77
2023/06/14 01:28:31;;;;;;;;;;;;;;;;;;5019118;28;19994;-77
2023/06/14 01:30:57;;;;;;;;;;;;;;;;;;5027638;28;19928;-77
2023/06/14 01:33:23;;;;;;;;;;;;;;;;;;5026448;28;19924;-77
2023/06/14 01:35:49;;;;;;;;;;;;;;;;;;5029729;28;19913;-78
2023/06/14 01:38:15;;;;;;;;;;;;;;;;;;5030256;28;19917;-78
2023/06/14 01:40:41;;;;;;;;;;;;;;;;;;5022993;28;19921;-77
2023/06/14 01:43:07;;;;;;;;;;;;;;;;;;5024534;28;19920;-77
2023/06/14 01:45:33;;;;;;;;;;;;;;;;;;5017896;28;20020;-77
2023/06/14 01:47:59;;;;;;;;;;;;;;;;;;5023843;28;20021;-77
2023/06/14 01:50:25;;;;;;;;;;;;;;;;;;5024028;28;20451;-77
2023/06/14 01:52:51;;;;;;;;;;;;;;;;;;5016810;28;19928;-77
2023/06/14 01:55:17;;;;;;;;;;;;;;;;;;5030919;28;19917;-77
2023/06/14 01:57:43;;;;;;;;;;;;;;;;;;5018304;28;19916;-77
2023/06/14 02:00:12;;;;;;;;;;;;;;;;;;5034091;28;19909;-77
2023/06/14 02:02:38;;;;;;;;;;;;;;;;;;5020271;28;19981;-78
2023/06/14 02:05:04;;;;;;;;;;;;;;;;;;5029540;28;19913;-78
2023/06/14 02:07:30;;;;;;;;;;;;;;;;;;5015573;28;20621;-77
2023/06/14 02:09:56;;;;;;;;;;;;;;;;;;5035416;28;19927;-77
2023/06/14 02:12:22;;;;;;;;;;;;;;;;;;5034517;28;19912;-77
2023/06/14 02:14:48;;;;;;;;;;;;;;;;;;5020318;28;19977;-77
2023/06/14 02:17:14;;;;;;;;;;;;;;;;;;5011780;28;20026;-78
2023/06/14 02:19:41;;;;;;;;;;;;;;;;;;5010602;28;19921;-78
2023/06/14 02:22:07;;;;;;;;;;;;;;;;;;5022382;28;20399;-77
2023/06/14 02:24:33;;;;;;;;;;;;;;;;;;5033864;28;20062;-77
2023/06/14 02:27:00;;;;;;;;;;;;;;;;;;5031937;28;19917;-77
2023/06/14 02:29:25;;;;;;;;;;;;;;;;;;5037197;28;20058;-77
2023/06/14 02:31:51;;;;;;;;;;;;;;;;;;5035867;28;19921;-77
2023/06/14 02:34:19;;;;;;;;;;;;;;;;;;5030851;28;19913;-77
2023/06/14 02:36:45;;;;;;;;;;;;;;;;;;5026940;28;19959;-77
2023/06/14 02:39:11;;;;;;;;;;;;;;;;;;5030458;28;19913;-77
2023/06/14 02:41:37;;;;;;;;;;;;;;;;;;5031353;28;19967;-77
2023/06/14 02:44:03;;;;;;;;;;;;;;;;;;5019539;28;19919;-77
2023/06/14 02:46:29;;;;;;;;;;;;;;;;;;5030944;28;19925;-77
2023/06/14 02:48:55;;;;;;;;;;;;;;;;;;5035659;28;19948;-77
2023/06/14 02:51:22;;;;;;;;;;;;;;;;;;5038015;28;20441;-77
2023/06/14 02:53:48;;;;;;;;;;;;;;;;;;5042245;28;19925;-77
2023/06/14 02:56:17;;;;;;;;;;;;;;;;;;5029313;28;19986;-76
2023/06/14 02:58:43;;;;;;;;;;;;;;;;;;5026454;28;19923;-76
2023/06/14 03:01:12;;;;;;;;;;;;;;;;;;5036837;28;20133;-75
2023/06/14 03:03:38;;;;;;;;;;;;;;;;;;5036716;28;20004;-76
2023/06/14 03:06:04;;;;;;;;;;;;;;;;;;5031915;28;20310;-76
2023/06/14 03:08:31;;;;;;;;;;;;;;;;;;5033748;28;19924;-76
2023/06/14 03:10:57;;;;;;;;;;;;;;;;;;5031896;28;20376;-77
2023/06/14 03:13:23;;;;;;;;;;;;;;;;;;5034023;28;19920;-76
2023/06/14 03:15:52;;;;;;;;;;;;;;;;;;5037665;28;19980;-77
2023/06/14 03:18:19;;;;;;;;;;;;;;;;;;5032545;28;19905;-77
2023/06/14 03:20:46;;;;;;;;;;;;;;;;;;5023343;28;20625;-77
2023/06/14 03:23:12;;;;;;;;;;;;;;;;;;5017306;28;20291;-77
2023/06/14 03:25:40;;;;;;;;;;;;;;;;;;5029452;28;19913;-77
2023/06/14 03:28:06;;;;;;;;;;;;;;;;;;5025248;28;19921;-76
2023/06/14 03:30:32;;;;;;;;;;;;;;;;;;5027500;28;19917;-77
2023/06/14 03:33:00;;;;;;;;;;;;;;;;;;5033362;28;19917;-77
2023/06/14 03:35:26;;;;;;;;;;;;;;;;;;5034626;28;19913;-77
2023/06/14 03:37:52;;;;;;;;;;;;;;;;;;5039007;28;20463;-77
2023/06/14 03:40:18;;;;;;;;;;;;;;;;;;5031932;28;20318;-77
2023/06/14 03:42:44;;;;;;;;;;;;;;;;;;5032415;28;19966;-76
2023/06/14 03:45:11;;;;;;;;;;;;;;;;;;5026999;28;19917;-77
2023/06/14 03:47:36;;;;;;;;;;;;;;;;;;5035239;28;19924;-77
2023/06/14 03:50:03;;;;;;;;;;;;;;;;;;5034769;28;20364;-77
2023/06/14 03:52:29;;;;;;;;;;;;;;;;;;5037164;28;19948;-77
2023/06/14 03:54:56;;;;;;;;;;;;;;;;;;5028998;28;19948;-77
2023/06/14 03:57:22;;;;;;;;;;;;;;;;;;5037907;28;19965;-78
2023/06/14 03:59:48;;;;;;;;;;;;;;;;;;5027015;28;19921;-78
2023/06/14 04:02:15;;;;;;;;;;;;;;;;;;5020970;28;20438;-77
2023/06/14 04:04:43;;;;;;;;;;;;;;;;;;5021436;28;19913;-77
2023/06/14 04:07:09;;;;;;;;;;;;;;;;;;5029151;28;19920;-78
2023/06/14 04:09:35;;;;;;;;;;;;;;;;;;5034652;28;19921;-78
2023/06/14 04:12:01;;;;;;;;;;;;;;;;;;5032165;28;19929;-78
2023/06/14 04:14:27;;;;;;;;;;;;;;;;;;5038343;28;19909;-78
2023/06/14 04:16:53;;;;;;;;;;;;;;;;;;5036869;28;20039;-78
2023/06/14 04:19:19;;;;;;;;;;;;;;;;;;5017549;28;20534;-78
2023/06/14 04:21:47;;;;;;;;;;;;;;;;;;5019525;28;19909;-78
2023/06/14 04:24:13;;;;;;;;;;;;;;;;;;5029596;28;19941;-78
2023/06/14 04:26:39;;;;;;;;;;;;;;;;;;5047442;28;19969;-78
2023/06/14 04:29:05;;;;;;;;;;;;;;;;;;5039951;28;19952;-78
2023/06/14 04:31:37;;;;;;;;;;;;;;;;;;5026757;28;20376;-78
2023/06/14 04:34:05;;;;;;;;;;;;;;;;;;5038160;28;19909;-78
2023/06/14 04:36:34;;;;;;;;;;;;;;;;;;5049712;28;19917;-78
2023/06/14 04:39:00;;;;;;;;;;;;;;;;;;5045676;28;20430;-78
2023/06/14 04:41:30;;;;;;;;;;;;;;;;;;5042064;28;19909;-78
2023/06/14 04:44:01;;;;;;;;;;;;;;;;;;5031402;28;19914;-78
2023/06/14 04:46:28;;;;;;;;;;;;;;;;;;5036383;28;19924;-78
2023/06/14 04:48:54;;;;;;;;;;;;;;;;;;5046721;28;19922;-79
2023/06/14 04:51:22;;;;;;;;;;;;;;;;;;5045746;28;20036;-82
2023/06/14 04:53:49;;;;;;;;;;;;;;;;;;5031294;28;19921;-81
2023/06/14 04:56:16;;;;;;;;;;;;;;;;;;5060349;27;19972;-81
2023/06/14 04:58:43;;;;;;;;;;;;;;;;;;5036564;28;19917;-82
2023/06/14 05:01:09;;;;;;;;;;;;;;;;;;5030962;28;19926;-82
2023/06/14 05:03:35;;;;;;;;;;;;;;;;;;5034721;28;19921;-82
2023/06/14 05:06:02;;;;;;;;;;;;;;;;;;5032345;28;20252;-79
2023/06/14 05:08:29;;;;;;;;;;;;;;;;;;5029929;28;19937;-77
2023/06/14 05:10:55;;;;;;;;;;;;;;;;;;5037936;28;19917;-77
2023/06/14 05:13:22;;;;;;;;;;;;;;;;;;5031887;28;20039;-78
2023/06/14 05:15:48;;;;;;;;;;;;;;;;;;5059941;28;19937;-79
2023/06/14 05:18:14;;;;;;;;;;;;;;;;;;5059501;28;19917;-77
2023/06/14 05:20:41;;;;;;;;;;;;;;;;;;5016523;28;19924;-76
2023/06/14 05:23:07;;;;;;;;;;;;;;;;;;5028299;28;19952;-76
2023/06/14 05:25:33;;;;;;;;;;;;;;;;;;5032861;28;19920;-76
2023/06/14 05:27:59;;;;;;;;;;;;;;;;;;5027090;28;19921;-77
2023/06/14 05:30:26;;;;;;;;;;;;;;;;;;5015421;28;20005;-77
2023/06/14 05:32:52;;;;;;;;;;;;;;;;;;5020364;27;19923;-76
2023/06/14 05:35:18;;;;;;;;;;;;;;;;;;5015437;28;19935;-77
2023/06/14 05:37:45;;;;;;;;;;;;;;;;;;5023852;28;19956;-76
2023/06/14 05:40:12;;;;;;;;;;;;;;;;;;5038219;28;19920;-77
2023/06/14 05:42:38;;;;;;;;;;;;;;;;;;5018128;28;19909;-79
2023/06/14 05:45:05;;;;;;;;;;;;;;;;;;5014957;28;20234;-80
2023/06/14 05:47:31;;;;;;;;;;;;;;;;;;5018376;28;19970;-78
2023/06/14 05:49:57;;;;;;;;;;;;;;;;;;5012284;28;19989;-79
2023/06/14 05:52:23;;;;;;;;;;;;;;;;;;5019396;28;19909;-78
2023/06/14 05:54:50;;;;;;;;;;;;;;;;;;5038019;28;19913;-78
2023/06/14 05:57:16;;;;;;;;;;;;;;;;;;5029676;28;20540;-77
2023/06/14 05:59:42;;;;;;;;;;;;;;;;;;5021610;28;19913;-79
2023/06/14 06:02:09;;;;;;;;;;;;;;;;;;5020113;28;19924;-79
2023/06/14 06:04:35;;;;;;;;;;;;;;;;;;5018223;28;19913;-78
2023/06/14 06:07:01;;;;;;;;;;;;;;;;;;5024266;28;19925;-78
2023/06/14 06:09:27;;;;;;;;;;;;;;;;;;5035424;27;20320;-77
2023/06/14 06:11:53;;;;;;;;;;;;;;;;;;5032181;28;19928;-77
2023/06/14 06:14:19;;;;;;;;;;;;;;;;;;5027419;28;20008;-77
2023/06/14 06:16:45;;;;;;;;;;;;;;;;;;5047936;28;19966;-77
2023/06/14 06:19:11;;;;;;;;;;;;;;;;;;5029575;28;19970;-77
2023/06/14 06:21:37;;;;;;;;;;;;;;;;;;5032274;28;19959;-75
2023/06/14 06:24:05;;;;;;;;;;;;;;;;;;5026355;28;19937;-76
2023/06/14 06:26:31;;;;;;;;;;;;;;;;;;5060466;28;19913;-78
2023/06/14 06:28:57;;;;;;;;;;;;;;;;;;5054912;27;19997;-78
2023/06/14 06:31:23;;;;;;;;;;;;;;;;;;5041298;28;19913;-78
2023/06/14 06:33:49;;;;;;;;;;;;;;;;;;5043419;28;19913;-77
2023/06/14 06:36:15;;;;;;;;;;;;;;;;;;5042416;28;20311;-77
2023/06/14 06:38:41;;;;;;;;;;;;;;;;;;5043021;28;20325;-77
2023/06/14 06:41:07;;;;;;;;;;;;;;;;;;5037187;28;19913;-77
2023/06/14 06:43:33;;;;;;;;;;;;;;;;;;5023759;28;19917;-77
2023/06/14 06:45:59;;;;;;;;;;;;;;;;;;5030220;28;19963;-77
2023/06/14 06:48:25;;;;;;;;;;;;;;;;;;5043248;28;20719;-77
2023/06/14 06:50:52;;;;;;;;;;;;;;;;;;5044114;28;19940;-78
2023/06/14 06:53:18;;;;;;;;;;;;;;;;;;5038820;28;19924;-77
2023/06/14 06:55:44;;;;;;;;;;;;;;;;;;5034229;28;19902;-77
2023/06/14 06:58:13;;;;;;;;;;;;;;;;;;5035724;28;20220;-78
2023/06/14 07:00:39;;;;;;;;;;;;;;;;;;5051699;27;19969;-78
2023/06/14 07:03:05;;;;;;;;;;;;;;;;;;5045811;28;20012;-76
2023/06/14 07:05:33;;;;;;;;;;;;;;;;;;5027888;28;19917;-76
2023/06/14 07:07:59;;;;;;;;;;;;;;;;;;5024502;27;19982;-76
2023/06/14 07:10:25;;;;;;;;;;;;;;;;;;5020107;28;19909;-75
2023/06/14 07:12:51;;;;;;;;;;;;;;;;;;5019990;28;19937;-76
2023/06/14 07:15:17;;;;;;;;;;;;;;;;;;5029513;28;19909;-77
2023/06/14 07:17:43;;;;;;;;;;;;;;;;;;5035538;28;20606;-77
2023/06/14 07:20:13;;;;;;;;;;;;;;;;;;5044036;28;19967;-77
2023/06/14 07:22:40;;;;;;;;;;;;;;;;;;5031247;28;19917;-77
2023/06/14 07:25:06;;;;;;;;;;;;;;;;;;5042355;27;19917;-78
2023/06/14 07:27:32;;;;;;;;;;;;;;;;;;5044236;27;20352;-76
2023/06/14 07:29:58;;;;;;;;;;;;;;;;;;5037265;28;19917;-76
2023/06/14 07:32:26;;;;;;;;;;;;;;;;;;5037812;28;19925;-74
2023/06/14 07:34:51;;;;;;;;;;;;;;;;;;5040816;28;19976;-75
2023/06/14 07:37:17;;;;;;;;;;;;;;;;;;5038426;28;19963;-75
2023/06/14 07:39:43;;;;;;;;;;;;;;;;;;5036891;28;19917;-75
2023/06/14 07:42:10;;;;;;;;;;;;;;;;;;5052106;27;20000;-74
2023/06/14 07:44:36;;;;;;;;;;;;;;;;;;5028356;28;19949;-75
2023/06/14 07:47:02;;;;;;;;;;;;;;;;;;5070554;27;19965;-75
2023/06/14 07:49:28;;;;;;;;;;;;;;;;;;5036891;28;19917;-74
2023/06/14 07:51:54;;;;;;;;;;;;;;;;;;5032261;28;19917;-75
2023/06/14 07:54:24;;;;;;;;;;;;;;;;;;5042624;28;19913;-75
2023/06/14 07:56:50;;;;;;;;;;;;;;;;;;5030651;28;19917;-74
2023/06/14 07:59:17;;;;;;;;;;;;;;;;;;5040282;28;20012;-75
2023/06/14 08:01:46;;;;;;;;;;;;;;;;;;5054319;27;19911;-74
2023/06/14 08:04:12;;;;;;;;;;;;;;;;;;5037500;27;20046;-75
2023/06/14 08:06:39;;;;;;;;;;;;;;;;;;5038435;28;20032;-75
2023/06/14 08:09:05;;;;;;;;;;;;;;;;;;5026682;28;20001;-75
2023/06/14 08:11:31;;;;;;;;;;;;;;;;;;5028835;28;19954;-75
2023/06/14 08:13:57;;;;;;;;;;;;;;;;;;5037544;28;19921;-75
2023/06/14 08:16:24;;;;;;;;;;;;;;;;;;5029272;28;20490;-75
2023/06/14 08:18:50;;;;;;;;;;;;;;;;;;5036211;28;19989;-75
2023/06/14 08:21:16;;;;;;;;;;;;;;;;;;5037515;28;19917;-75
2023/06/14 08:23:45;;;;;;;;;;;;;;;;;;5031388;28;19931;-75
2023/06/14 08:26:11;;;;;;;;;;;;;;;;;;5038889;28;19959;-75
2023/06/14 08:28:37;;;;;;;;;;;;;;;;;;5033404;28;19925;-74
2023/06/14 08:31:03;;;;;;;;;;;;;;;;;;5028645;28;19970;-75
2023/06/14 08:33:29;;;;;;;;;;;;;;;;;;5032603;28;19944;-75
2023/06/14 08:35:55;;;;;;;;;;;;;;;;;;5038227;28;20234;-74
2023/06/14 08:38:21;;;;;;;;;;;;;;;;;;5035128;28;19996;-74
2023/06/14 08:40:47;;;;;;;;;;;;;;;;;;5044507;28;19910;-74
2023/06/14 08:43:13;;;;;;;;;;;;;;;;;;5035152;28;19964;-74
2023/06/14 08:45:39;;;;;;;;;;;;;;;;;;5035179;27;19924;-74
2023/06/14 08:48:05;;;;;;;;;;;;;;;;;;5067308;27;19968;-76
2023/06/14 08:50:31;;;;;;;;;;;;;;;;;;5021901;28;19914;-76
2023/06/14 08:53:02;;;;;;;;;;;;;;;;;;5041577;28;19913;-76
2023/06/14 08:55:28;;;;;;;;;;;;;;;;;;5035527;28;19924;-76
2023/06/14 08:57:54;;;;;;;;;;;;;;;;;;5036812;28;19913;-76
2023/06/14 09:00:22;;;;;;;;;;;;;;;;;;5033876;28;19925;-76
2023/06/14 09:02:48;;;;;;;;;;;;;;;;;;5025984;28;19954;-75
2023/06/14 09:05:14;;;;;;;;;;;;;;;;;;5106942;27;19909;-75
2023/06/14 09:07:41;;;;;;;;;;;;;;;;;;5038831;28;19921;-73
2023/06/14 09:10:10;;;;;;;;;;;;;;;;;;5045429;28;20344;-74
2023/06/14 09:12:37;;;;;;;;;;;;;;;;;;5047530;28;20099;-74
2023/06/14 09:15:05;;;;;;;;;;;;;;;;;;5037910;28;20248;-75
2023/06/14 09:17:31;;;;;;;;;;;;;;;;;;5026423;28;19910;-74
2023/06/14 09:19:58;;;;;;;;;;;;;;;;;;5038440;28;19954;-74
2023/06/14 09:22:24;;;;;;;;;;;;;;;;;;5042991;28;20364;-74
2023/06/14 09:24:50;;;;;;;;;;;;;;;;;;5030719;28;19929;-74
2023/06/14 09:27:16;;;;;;;;;;;;;;;;;;5027929;28;19913;-75
2023/06/14 09:29:44;;;;;;;;;;;;;;;;;;5035258;28;21768;-76
2023/06/14 09:32:10;;;;;;;;;;;;;;;;;;5042159;28;19935;-75
2023/06/14 09:34:37;;;;;;;;;;;;;;;;;;5044061;28;20195;-75
2023/06/14 09:37:03;;;;;;;;;;;;;;;;;;5040871;28;20009;-75
2023/06/14 09:39:28;;;;;;;;;;;;;;;;;;5041808;28;20327;-74
2023/06/14 09:41:55;;;;;;;;;;;;;;;;;;5116244;27;19995;-75
2023/06/14 09:44:21;;;;;;;;;;;;;;;;;;5042571;27;19924;-75
2023/06/14 09:46:47;;;;;;;;;;;;;;;;;;5043029;28;19952;-74
2023/06/14 09:49:13;;;;;;;;;;;;;;;;;;5042773;28;19917;-75
2023/06/14 09:51:39;;;;;;;;;;;;;;;;;;5029153;28;20394;-73
2023/06/14 09:54:05;;;;;;;;;;;;;;;;;;5038177;28;20015;-76
2023/06/14 09:56:31;;;;;;;;;;;;;;;;;;5042020;28;19928;-75
2023/06/14 09:58:57;;;;;;;;;;;;;;;;;;5040340;28;19919;-76
2023/06/14 10:01:24;;;;;;;;;;;;;;;;;;5043708;28;19934;-76
2023/06/14 10:03:53;;;;;;;;;;;;;;;;;;5032391;28;19913;-76
2023/06/14 10:06:20;;;;;;;;;;;;;;;;;;5034690;28;19916;-77
2023/06/14 10:08:46;;;;;;;;;;;;;;;;;;5042512;28;19928;-76
2023/06/14 10:11:12;;;;;;;;;;;;;;;;;;5041586;28;19918;-77
2023/06/14 10:13:39;;;;;;;;;;;;;;;;;;5032034;28;19921;-75
2023/06/14 10:16:06;;;;;;;;;;;;;;;;;;5038667;28;19913;-76
2023/06/14 10:18:34;;;;;;;;;;;;;;;;;;5042328;28;19917;-76
2023/06/14 10:21:00;;;;;;;;;;;;;;;;;;5040762;28;20016;-76
2023/06/14 10:23:27;;;;;;;;;;;;;;;;;;5038116;28;20328;-76
2023/06/14 10:25:53;;;;;;;;;;;;;;;;;;5031839;28;19938;-76
2023/06/14 10:28:20;;;;;;;;;;;;;;;;;;5028931;28;19929;-74
2023/06/14 10:30:46;;;;;;;;;;;;;;;;;;5032641;28;19960;-76
2023/06/14 10:33:13;;;;;;;;;;;;;;;;;;5037228;28;19981;-76
2023/06/14 10:35:39;;;;;;;;;;;;;;;;;;5035334;28;19925;-76
2023/06/14 10:38:05;;;;;;;;;;;;;;;;;;5042234;28;19917;-77
2023/06/14 10:40:31;;;;;;;;;;;;;;;;;;5035768;28;19913;-76
2023/06/14 10:42:57;;;;;;;;;;;;;;;;;;5040043;28;19984;-74
2023/06/14 10:45:23;;;;;;;;;;;;;;;;;;5033401;28;19924;-75
2023/06/14 10:47:52;;;;;;;;;;;;;;;;;;5033480;28;19931;-75
2023/06/14 10:50:19;;;;;;;;;;;;;;;;;;5043954;28;19981;-75
2023/06/14 10:55:22;;;;;;;;;;;;;;;;;;4295459;26;19930;-54
2023/06/14 10:57:51;;;;;;;;;;;;;;;;;;4969113;28;19940;-54
2023/06/14 11:00:17;;;;;;;;;;;;;;;;;;5011323;28;20007;-55
2023/06/14 11:02:45;;;;;;;;;;;;;;;;;;4978511;28;19918;-55
2023/06/14 11:05:11;;;;;;;;;;;;;;;;;;4966595;28;20009;-54
2023/06/14 11:07:38;;;;;;;;;;;;;;;;;;4983669;28;19994;-55
2023/06/14 11:10:04;;;;;;;;;;;;;;;;;;4978793;28;20020;-54
2023/06/14 11:12:30;;;;;;;;;;;;;;;;;;4967870;28;20013;-56
2023/06/14 11:14:56;;;;;;;;;;;;;;;;;;4969581;28;20383;-53
2023/06/14 11:17:22;;;;;;;;;;;;;;;;;;4968284;28;19954;-55
2023/06/14 11:19:48;;;;;;;;;;;;;;;;;;4972227;28;19969;-54
2023/06/14 11:22:15;;;;;;;;;;;;;;;;;;4969384;28;20370;-55
2023/06/14 11:24:41;;;;;;;;;;;;;;;;;;5004946;28;19957;-55
2023/06/14 11:27:08;;;;;;;;;;;;;;;;;;5067985;28;20498;-54
2023/06/14 11:29:34;;;;;;;;;;;;;;;;;;5069977;28;19992;-53
2023/06/14 11:32:00;;;;;;;;;;;;;;;;;;5071032;28;20080;-54
2023/06/14 11:34:26;;;;;;;;;;;;;;;;;;5070665;28;19997;-54
2023/06/14 11:36:53;;;;;;;;;;;;;;;;;;5069484;28;19916;-59
2023/06/14 11:39:19;;;;;;;;;;;;;;;;;;5069978;28;19916;-52
2023/06/14 11:41:45;;;;;;;;;;;;;;;;;;5069851;28;20268;-52
2023/06/14 11:44:11;;;;;;;;;;;;;;;;;;5070243;28;19960;-52
2023/06/14 11:46:37;;;;;;;;;;;;;;;;;;5068531;28;19923;-53
2023/06/14 11:49:04;;;;;;;;;;;;;;;;;;5065669;28;20073;-53
2023/06/14 11:51:30;;;;;;;;;;;;;;;;;;5065362;28;19912;-53
2023/06/14 11:53:56;;;;;;;;;;;;;;;;;;5061382;28;19956;-53
2023/06/14 11:56:22;;;;;;;;;;;;;;;;;;5060885;28;19952;-53
2023/06/14 11:58:48;;;;;;;;;;;;;;;;;;5068929;28;20328;-53
2023/06/14 12:01:14;;;;;;;;;;;;;;;;;;5070358;28;19913;-52
2023/06/14 12:03:40;;;;;;;;;;;;;;;;;;5066556;28;19916;-53
2023/06/14 12:06:09;;;;;;;;;;;;;;;;;;5067888;28;19955;-54
2023/06/14 12:08:39;;;;;;;;;;;;;;;;;;5068870;28;19982;-52
2023/06/14 12:11:06;;;;;;;;;;;;;;;;;;5063537;28;20397;-54
2023/06/14 12:13:31;;;;;;;;;;;;;;;;;;5069155;28;19912;-54
2023/06/14 12:15:57;;;;;;;;;;;;;;;;;;5066967;28;19955;-54
2023/06/14 12:18:23;;;;;;;;;;;;;;;;;;5068052;28;20395;-54
2023/06/14 12:20:50;;;;;;;;;;;;;;;;;;5067316;28;19913;-56
2023/06/14 12:23:16;;;;;;;;;;;;;;;;;;5068419;28;19939;-53
2023/06/14 12:25:42;;;;;;;;;;;;;;;;;;5067850;28;20427;-54
2023/06/14 12:28:08;;;;;;;;;;;;;;;;;;5066989;28;19934;-53
2023/06/14 12:30:34;;;;;;;;;;;;;;;;;;5068143;28;20305;-55
2023/06/14 12:33:00;;;;;;;;;;;;;;;;;;5069945;28;19947;-54
2023/06/14 12:35:26;;;;;;;;;;;;;;;;;;5068784;28;19916;-53
2023/06/14 12:37:52;;;;;;;;;;;;;;;;;;5065304;28;19913;-54
2023/06/14 12:40:18;;;;;;;;;;;;;;;;;;5067741;28;19931;-55
2023/06/14 12:42:45;;;;;;;;;;;;;;;;;;5067260;28;20287;-54
2023/06/14 12:45:11;;;;;;;;;;;;;;;;;;5069245;28;19913;-53
2023/06/14 12:47:37;;;;;;;;;;;;;;;;;;5069538;28;20397;-57
2023/06/14 12:50:03;;;;;;;;;;;;;;;;;;5067280;28;20439;-54
2023/06/14 12:52:29;;;;;;;;;;;;;;;;;;5068794;28;19967;-56
2023/06/14 12:54:55;;;;;;;;;;;;;;;;;;5068067;28;20003;-54
2023/06/14 12:57:21;;;;;;;;;;;;;;;;;;5067315;28;19909;-55
2023/06/14 12:59:47;;;;;;;;;;;;;;;;;;5067628;28;20393;-55
2023/06/14 13:02:14;;;;;;;;;;;;;;;;;;5063515;28;20284;-54
2023/06/14 13:04:40;;;;;;;;;;;;;;;;;;5059193;28;19916;-54
2023/06/14 13:07:06;;;;;;;;;;;;;;;;;;5062035;28;19923;-54
2023/06/14 13:09:32;;;;;;;;;;;;;;;;;;5058432;28;19967;-54
2023/06/14 13:11:58;;;;;;;;;;;;;;;;;;5056423;28;19927;-54
2023/06/14 13:14:24;;;;;;;;;;;;;;;;;;5057353;28;19912;-54
2023/06/14 13:16:50;;;;;;;;;;;;;;;;;;5065288;28;19956;-60
2023/06/14 13:19:16;;;;;;;;;;;;;;;;;;5055938;28;20366;-54
2023/06/14 13:21:42;;;;;;;;;;;;;;;;;;5058523;28;20000;-55
2023/06/14 13:24:08;;;;;;;;;;;;;;;;;;5063114;28;20319;-54
2023/06/14 13:26:35;;;;;;;;;;;;;;;;;;5054080;28;19962;-54
2023/06/14 13:29:01;;;;;;;;;;;;;;;;;;5064667;28;20291;-54
2023/06/14 13:31:27;;;;;;;;;;;;;;;;;;5061114;28;19916;-54
2023/06/14 13:33:53;;;;;;;;;;;;;;;;;;5058703;28;19913;-54
2023/06/14 13:36:19;;;;;;;;;;;;;;;;;;5060280;28;20415;-54
2023/06/14 13:38:45;;;;;;;;;;;;;;;;;;5061056;28;19925;-54
2023/06/14 13:41:11;;;;;;;;;;;;;;;;;;5059571;28;19913;-54
2023/06/14 13:43:37;;;;;;;;;;;;;;;;;;5056788;28;19948;-55
2023/06/14 13:46:03;;;;;;;;;;;;;;;;;;5056698;28;19913;-55
2023/06/14 13:48:29;;;;;;;;;;;;;;;;;;5048212;28;20359;-55
2023/06/14 13:50:56;;;;;;;;;;;;;;;;;;5052737;28;19913;-56
2023/06/14 13:53:23;;;;;;;;;;;;;;;;;;5063239;28;19921;-57
2023/06/14 13:55:49;;;;;;;;;;;;;;;;;;5066319;28;19924;-55
2023/06/14 13:58:15;;;;;;;;;;;;;;;;;;5065468;28;20534;-56
2023/06/14 14:00:41;;;;;;;;;;;;;;;;;;5056214;28;20003;-56
2023/06/14 14:03:08;;;;;;;;;;;;;;;;;;5060400;28;19917;-56
2023/06/14 14:05:35;;;;;;;;;;;;;;;;;;5064051;28;19913;-56
2023/06/14 14:08:01;;;;;;;;;;;;;;;;;;5063411;28;19942;-56
2023/06/14 14:10:28;;;;;;;;;;;;;;;;;;5066765;28;20459;-57
2023/06/14 14:12:54;;;;;;;;;;;;;;;;;;5062381;28;20272;-56
2023/06/14 14:15:20;;;;;;;;;;;;;;;;;;5057959;28;19913;-55
2023/06/14 14:17:47;;;;;;;;;;;;;;;;;;5057086;28;19955;-54
2023/06/14 14:20:15;;;;;;;;;;;;;;;;;;5062967;28;19919;-55
2023/06/14 14:22:41;;;;;;;;;;;;;;;;;;5061584;28;19912;-56
2023/06/14 14:25:07;;;;;;;;;;;;;;;;;;5066707;28;19916;-55
2023/06/14 14:27:33;;;;;;;;;;;;;;;;;;5058348;28;19916;-55
2023/06/14 14:29:59;;;;;;;;;;;;;;;;;;5060345;28;20525;-55
2023/06/14 14:32:25;;;;;;;;;;;;;;;;;;5047943;28;20352;-55
2023/06/14 14:34:51;;;;;;;;;;;;;;;;;;5064824;28;19951;-55
2023/06/14 14:37:17;;;;;;;;;;;;;;;;;;5057649;28;20008;-54
2023/06/14 14:39:43;;;;;;;;;;;;;;;;;;5059952;28;19952;-58
2023/06/14 14:42:11;;;;;;;;;;;;;;;;;;5063003;28;19952;-55
2023/06/14 14:44:37;;;;;;;;;;;;;;;;;;5069429;28;19947;-55
2023/06/14 14:47:03;;;;;;;;;;;;;;;;;;5067132;28;19912;-55
2023/06/14 14:49:30;;;;;;;;;;;;;;;;;;5065370;28;19920;-55
2023/06/14 14:51:57;;;;;;;;;;;;;;;;;;5059208;28;19916;-55
2023/06/14 14:54:26;;;;;;;;;;;;;;;;;;5060985;28;20054;-53
2023/06/14 14:56:52;;;;;;;;;;;;;;;;;;5064754;28;20321;-55
2023/06/14 14:59:18;;;;;;;;;;;;;;;;;;5064886;28;19951;-54
2023/06/14 15:01:45;;;;;;;;;;;;;;;;;;5057722;28;19912;-55
2023/06/14 15:04:11;;;;;;;;;;;;;;;;;;5066165;28;19978;-55
2023/06/14 15:06:39;;;;;;;;;;;;;;;;;;5068499;28;19923;-54
2023/06/14 15:09:05;;;;;;;;;;;;;;;;;;5069516;28;19923;-62
2023/06/14 15:11:31;;;;;;;;;;;;;;;;;;5067715;28;19963;-54
2023/06/14 15:13:57;;;;;;;;;;;;;;;;;;5067825;28;19959;-58
2023/06/14 15:16:23;;;;;;;;;;;;;;;;;;5070064;28;19908;-54
2023/06/14 15:18:49;;;;;;;;;;;;;;;;;;5066564;28;19923;-53
2023/06/14 15:21:15;;;;;;;;;;;;;;;;;;5067198;28;20419;-55
2023/06/14 15:23:41;;;;;;;;;;;;;;;;;;5070143;28;19944;-53
2023/06/14 15:26:07;;;;;;;;;;;;;;;;;;5065993;28;20059;-55
2023/06/14 15:28:33;;;;;;;;;;;;;;;;;;5065216;28;19920;-54
2023/06/14 15:31:00;;;;;;;;;;;;;;;;;;5066270;28;19916;-54
2023/06/14 15:33:26;;;;;;;;;;;;;;;;;;5061900;28;20466;-55
2023/06/14 15:35:52;;;;;;;;;;;;;;;;;;5061857;28;19948;-53
2023/06/14 15:38:18;;;;;;;;;;;;;;;;;;5066176;28;19963;-55
2023/06/14 15:40:44;;;;;;;;;;;;;;;;;;5067775;28;20284;-54
2023/06/14 15:43:10;;;;;;;;;;;;;;;;;;5061436;28;19939;-54
2023/06/14 15:45:37;;;;;;;;;;;;;;;;;;5061565;28;20070;-54
2023/06/14 15:48:02;;;;;;;;;;;;;;;;;;5065433;28;19912;-54
2023/06/14 15:50:28;;;;;;;;;;;;;;;;;;5061314;28;19927;-54
2023/06/14 15:52:54;;;;;;;;;;;;;;;;;;5061934;28;19995;-53
2023/06/14 15:55:20;;;;;;;;;;;;;;;;;;5061859;28;19960;-53
2023/06/14 15:57:47;;;;;;;;;;;;;;;;;;5063366;28;19935;-54
2023/06/14 16:00:13;;;;;;;;;;;;;;;;;;5061143;28;19912;-55
2023/06/14 16:02:39;;;;;;;;;;;;;;;;;;5068093;28;19943;-55
2023/06/14 16:05:06;;;;;;;;;;;;;;;;;;5064464;28;20150;-56
2023/06/14 16:07:32;;;;;;;;;;;;;;;;;;5061146;28;19916;-55
2023/06/14 16:09:58;;;;;;;;;;;;;;;;;;5059298;28;20461;-54
2023/06/14 16:12:24;;;;;;;;;;;;;;;;;;5061291;28;20026;-55
2023/06/14 16:14:50;;;;;;;;;;;;;;;;;;5067336;28;19967;-52
2023/06/14 16:17:16;;;;;;;;;;;;;;;;;;5063005;28;19956;-52
2023/06/14 16:19:42;;;;;;;;;;;;;;;;;;5063696;28;19920;-52
2023/06/14 16:22:08;;;;;;;;;;;;;;;;;;5059950;28;19916;-54
2023/06/14 16:24:34;;;;;;;;;;;;;;;;;;5060425;28;19992;-53
2023/06/14 16:27:02;;;;;;;;;;;;;;;;;;5061155;28;20027;-54
2023/06/14 16:29:27;;;;;;;;;;;;;;;;;;5058686;28;19989;-53
2023/06/14 16:31:53;;;;;;;;;;;;;;;;;;5060433;28;19966;-68
2023/06/14 16:34:19;;;;;;;;;;;;;;;;;;5062124;28;19960;-54
2023/06/14 16:36:45;;;;;;;;;;;;;;;;;;5061214;28;20033;-54
2023/06/14 16:39:12;;;;;;;;;;;;;;;;;;5060818;28;19927;-54
2023/06/14 16:41:38;;;;;;;;;;;;;;;;;;5060323;28;19974;-54